Montvale, VA (24122)

11:10 AM EST on December 27, 2014 (GMT -0500)
Upper Goose Creek Valley at BRD Farm | Change Station
CLOSE
Current Station
Personal Weather Station
Location: Montvale, VA
Elevation: 1299 ft
Nearby Weather Stations

Elev 1299 ft 37.47 °N, 79.67 °W | Updated 1 second ago

Partly Cloudy
Partly Cloudy
61.2 °F
Feels Like 61.2 °F
N
6.0
Wind Variable Wind from West
Gusts 6.0 mph

Today
High -- | Low -- °F
--% Chance of Precip.
Yesterday
High -- | Low -- °F
Precip. -- in
7:32 AM 5:07 PM
Waxing Crescent, 38% visible
Pressure 30.31 in
Visibility 10.0 miles
Clouds Scattered Clouds 25000 ft
Dew Point 21 °F
Humidity 21%
Rainfall 0.00 in
Snow Depth Not available.
UV 2 out of 12
Pollen .10 out of 12
Air Quality Not available.
Flu Activity Not available.
METAR KROA 271554Z 01003KT 10SM SCT250 12/M02 A3031 RMK AO2 SLP264 T01171017

More Conditions Fewer Conditions

Pressure 30.31 in
Visibility 10.0 miles
Clouds Scattered Clouds 25000 ft
Dew Point 21 °F
Humidity 21%
Rainfall 0.00 in
Snow Depth Not available.
UV 2 out of 12
Pollen .10 out of 12
Air Quality Not available.
Flu Activity Not available.
METAR KROA 271554Z 01003KT 10SM SCT250 12/M02 A3031 RMK AO2 SLP264 T01171017

More Conditions Fewer Conditions

10-Day Weather Forecast

Almanac

Astronomy

Dec. 27, 2014 Rise Set
Actual Time
Civil Twilight
Nautical Twilight
Astronomical Twilight
Moon
Length of Visible Light
Length of Day
Tomorrow will be .
, % of the Moon is Illuminated

Today's Extremes

State Highs State Lows

Community

WunderPhotos

Upload Photos

1,780,943 photos uploaded!

WunderBlogs® & News

Nearby

Air Quality

  Air Quality AQ Index Pollutant
Not available.

Snow Depth

Station Depth Elevation

Earthquake Activity

City Distance Mag. Time & Date
Minimum magnitude displayed is 2.5.

Coastal Water Temperatures

Place Temperature

Nearby Weather Stations